METAR Data
IDs: Format: Raw Decoded Include TAF

Data at: 0245 UTC 18 Jun 2019

PAEM 180156Z AUTO 34012KT 10SM CLR 19/09 A2970 RMK AO2 SLP115 T01940089
PAEM 180056Z AUTO 35013KT 10SM FEW002 20/08 A2971 RMK AO2 SLP118 T02000083
PAEM 172356Z AUTO 34014KT 10SM CLR 19/09 A2972 RMK AO2 SLP123 T01940089 10200 20156 56009
PAEM 172256Z AUTO 34013KT 10SM CLR 19/07 A2972 RMK AO2 SLP124 T01940072
PAEM 172156Z AUTO 32011KT 10SM CLR 19/08 A2973 RMK AO2 SLP127 T01890078
PAEM 171956Z AUTO 34010KT 10SM CLR 17/09 A2976 RMK AO2 SLP135 T01670094
PAEM 171856Z AUTO 33012KT 10SM CLR 16/11 A2977 RMK AO2 SLP138 T01560106
PAEM 171756Z AUTO 32012KT 10SM CLR 16/11 A2977 RMK AO2 SLP139 T01610106 10161 20106 58005
PAEM 171656Z AUTO 33010KT 10SM CLR 14/11 A2978 RMK AO2 SLP142 T01440111
PAEM 171556Z AUTO 33008KT 10SM CLR 14/11 A2978 RMK AO2 SLP143 T01390106
PAEM 171456Z AUTO 35006KT 10SM CLR 13/10 A2978 RMK AO2 SLP144 T01280100 58002
PAEM 171356Z AUTO 35006KT 10SM CLR 12/10 A2979 RMK AO2 SLP145 T01170100
PAEM 171256Z AUTO 36007KT 10SM CLR 12/10 A2979 RMK AO2 SLP145 T01170100
PAEM 171156Z AUTO 36007KT 10SM CLR 12/10 A2979 RMK AO2 SLP146 T01170100 10178 20117 53001
PAEM 171056Z AUTO 36008KT 10SM CLR 13/11 A2979 RMK AO2 SLP144 T01330106
PAEM 170956Z AUTO 33008KT 10SM CLR 13/12 A2978 RMK AO2 SLP144 T01330117
PAEM 170856Z AUTO 33007KT 10SM CLR 14/12 A2979 RMK AO2 SLP145 T01390122 58005
PAEM 170756Z AUTO 34007KT 10SM CLR 15/11 A2979 RMK AO2 SLP146 T01500111 402000100
PAEM 170656Z AUTO 34010KT 10SM CLR 17/11 A2980 RMK AO2 SLP149 T01670111
PAEM 170556Z AUTO 36010KT 10SM CLR 18/11 A2980 RMK AO2 SLP150 T01780106 10200 20178 56006
PAEM 170456Z AUTO 35012KT 10SM CLR 18/11 A2981 RMK AO2 SLP151 T01830106
PAEM 170356Z AUTO 33015KT 10SM CLR 18/10 A2981 RMK AO2 SLP152 T01830100
PAEM 170256Z AUTO 35015G19KT 10SM CLR 18/11 A2982 RMK AO2 SLP156 T01830106 56006
PAEM 170156Z AUTO 36016KT 10SM SCT100 19/10 A2983 RMK AO2 SLP158 T01890100
PAEM 170056Z AUTO 34014G20KT 10SM FEW100 20/11 A2983 RMK AO2 SLP159 T02000106
PAEM 162356Z AUTO 01011KT 10SM CLR 20/10 A2984 RMK AO2 SLP162 T02000100 10200 20167 56005
PAEM 162256Z AUTO 02011G16KT 10SM BKN045 19/09 A2984 RMK AO2 SLP163 T01940094
PAEM 162156Z AUTO 01010KT 10SM FEW045 20/09 A2984 RMK AO2 SLP164 T02000089
PAEM 162056Z AUTO 03008KT 10SM FEW047 SCT060 19/09 A2985 RMK AO2 SLP167 T01890089 58001
PAEM 161956Z AUTO 03009KT 10SM FEW035 18/10 A2985 RMK AO2 SLP167 T01830100
PAEM 161856Z AUTO 03007KT 10SM CLR 18/10 A2986 RMK AO2 SLP168 T01780100
PAEM 161756Z AUTO 05004KT 10SM CLR 17/10 A2986 RMK AO2 SLP168 T01670100 10167 20106 51007
PAEM 161656Z AUTO 07005KT 10SM CLR 14/10 A2985 RMK AO2 SLP165 T01440100
PAEM 161556Z AUTO 03006KT 10SM CLR 13/12 A2984 RMK AO2 SLP164 T01280117
PAEM 161456Z AUTO 10003KT 10SM CLR 12/10 A2983 RMK AO2 SLP161 T01170100 51005